createdAt,value
2022-08-11T00:02:04.599Z,101368.59
2022-08-11T00:04:39.423Z,101365.00
2022-08-11T00:07:09.546Z,101365.31
2022-08-11T00:09:40.953Z,101360.31
2022-08-11T00:12:16.469Z,101366.97
2022-08-11T00:14:47.457Z,101366.59
2022-08-11T00:17:18.810Z,101368.56
2022-08-11T00:20:12.583Z,101367.94
2022-08-11T00:22:44.020Z,101368.38
2022-08-11T00:25:15.390Z,101358.38
2022-08-11T00:27:45.144Z,101366.03
2022-08-11T00:30:15.299Z,101370.16
2022-08-11T00:32:54.863Z,101363.59
2022-08-11T00:35:51.366Z,101366.44
2022-08-11T00:38:27.372Z,101365.63
2022-08-11T00:41:06.833Z,101363.81
2022-08-11T00:44:03.435Z,101357.56
2022-08-11T00:46:48.487Z,101366.44
2022-08-11T00:49:41.014Z,101360.00
2022-08-11T00:52:29.824Z,101360.63
2022-08-11T00:56:03.026Z,101364.44
2022-08-11T00:59:32.323Z,101364.03
2022-08-11T01:02:20.728Z,101364.44
2022-08-11T01:05:36.866Z,101363.91
2022-08-11T01:08:47.783Z,101368.03
2022-08-11T01:11:55.360Z,101368.03
2022-08-11T01:15:13.039Z,101375.34
2022-08-11T01:18:30.745Z,101378.22
2022-08-11T01:21:54.252Z,101360.84
2022-08-11T01:25:56.856Z,101364.56
2022-08-11T01:29:34.443Z,101360.72
2022-08-11T01:32:46.789Z,101361.03
2022-08-11T01:35:52.501Z,101364.81
2022-08-11T01:39:12.053Z,101363.03
2022-08-11T01:42:59.543Z,101367.25
2022-08-11T01:45:41.712Z,101361.41
2022-08-11T01:48:23.744Z,101373.34
2022-08-11T01:51:17.046Z,101369.59
2022-08-11T01:53:58.198Z,101368.00
2022-08-11T01:56:50.641Z,101371.50
2022-08-11T01:59:25.814Z,101370.66
2022-08-11T02:02:46.107Z,101374.16
2022-08-11T02:05:30.162Z,101365.16
2022-08-11T02:08:12.754Z,101372.88
2022-08-11T02:11:07.800Z,101363.44
2022-08-11T02:13:50.690Z,101368.25
2022-08-11T02:16:34.387Z,101366.69
2022-08-11T02:19:39.393Z,101363.06
2022-08-11T02:22:37.656Z,101371.22
2022-08-11T02:25:21.641Z,101373.09
2022-08-11T02:28:04.247Z,101367.16
2022-08-11T02:30:40.579Z,101371.81
2022-08-11T02:33:25.039Z,101373.63
2022-08-11T02:36:08.417Z,101372.66
2022-08-11T02:38:54.232Z,101370.97
2022-08-11T02:41:56.533Z,101374.44
2022-08-11T02:44:35.522Z,101370.13
2022-08-11T02:47:14.989Z,101375.28
2022-08-11T02:50:07.196Z,101368.31
2022-08-11T02:52:51.909Z,101376.06
2022-08-11T02:55:48.910Z,101373.50
2022-08-11T02:58:42.613Z,101382.75
2022-08-11T03:01:21.074Z,101384.56
2022-08-11T03:04:01.503Z,101385.38
2022-08-11T03:06:40.102Z,101388.47
2022-08-11T03:09:23.327Z,101378.66
2022-08-11T03:12:24.965Z,101377.34
2022-08-11T03:15:21.531Z,101378.81
2022-08-11T03:18:05.385Z,101384.09
2022-08-11T03:20:47.750Z,101385.66
2022-08-11T03:23:28.334Z,101383.91
2022-08-11T03:26:07.558Z,101386.41
2022-08-11T03:28:52.731Z,101388.78
2022-08-11T03:31:30.618Z,101387.75
2022-08-11T03:34:08.351Z,101387.50
2022-08-11T03:37:17.627Z,101389.88
2022-08-11T03:40:00.830Z,101390.59
2022-08-11T03:42:43.229Z,101396.44
2022-08-11T03:45:26.229Z,101387.78
2022-08-11T03:48:24.468Z,101387.56
2022-08-11T03:51:15.173Z,101391.50
2022-08-11T03:54:11.480Z,101394.41
2022-08-11T03:57:25.662Z,101396.63
2022-08-11T04:00:36.387Z,101400.66
2022-08-11T04:03:49.298Z,101398.31
2022-08-11T04:07:25.545Z,101393.22
2022-08-11T04:10:33.029Z,101391.94
2022-08-11T04:13:38.853Z,101400.19
2022-08-11T04:16:30.142Z,101398.31
2022-08-11T04:20:11.601Z,101395.44
2022-08-11T04:23:13.642Z,101396.06
2022-08-11T04:26:49.274Z,101387.28
2022-08-11T04:30:05.221Z,101401.94
2022-08-11T04:33:01.199Z,101401.53
2022-08-11T04:35:51.367Z,101401.94
2022-08-11T04:39:03.864Z,101404.09
2022-08-11T04:42:43.445Z,101399.84
2022-08-11T04:45:48.637Z,101409.13
2022-08-11T04:49:03.696Z,101401.41
2022-08-11T04:52:24.036Z,101409.09
2022-08-11T04:55:51.134Z,101400.97
2022-08-11T04:58:54.237Z,101410.13
2022-08-11T05:01:43.443Z,101408.09
2022-08-11T05:04:57.133Z,101412.09
2022-08-11T05:08:28.495Z,101418.88
2022-08-11T05:11:31.685Z,101418.53
2022-08-11T05:14:52.992Z,101411.00
2022-08-11T05:17:54.665Z,101404.84
2022-08-11T05:20:44.166Z,101411.03
2022-08-11T05:23:33.815Z,101412.16
2022-08-11T05:26:47.117Z,101412.03
2022-08-11T05:29:47.531Z,101418.91
2022-08-11T05:32:36.497Z,101410.38
2022-08-11T05:35:08.504Z,101417.47
2022-08-11T05:38:03.307Z,101407.94
2022-08-11T05:40:53.127Z,101415.16
2022-08-11T05:44:21.710Z,101414.72
2022-08-11T05:46:57.988Z,101418.78
2022-08-11T05:49:50.310Z,101416.59
2022-08-11T05:52:55.295Z,101422.81
2022-08-11T05:56:03.346Z,101413.47
2022-08-11T05:58:42.990Z,101418.44
2022-08-11T06:01:15.319Z,101420.47
2022-08-11T06:04:04.426Z,101417.59
2022-08-11T06:06:33.784Z,101416.25
2022-08-11T06:09:03.830Z,101416.19
2022-08-11T06:11:43.977Z,101414.56
2022-08-11T06:14:16.570Z,101412.53
2022-08-11T06:16:50.814Z,101418.84
2022-08-11T06:19:24.869Z,101413.19
2022-08-11T06:21:54.454Z,101412.47
2022-08-11T06:24:23.967Z,101421.97
2022-08-11T06:27:11.807Z,101411.72
2022-08-11T06:29:55.027Z,101416.34
2022-08-11T06:32:32.506Z,101416.19
2022-08-11T06:35:25.394Z,101421.00
2022-08-11T06:38:09.057Z,101419.59
2022-08-11T06:41:09.495Z,101423.78
2022-08-11T06:43:55.882Z,101426.59
2022-08-11T06:46:31.224Z,101421.00
2022-08-11T06:49:04.073Z,101419.56
2022-08-11T06:51:37.223Z,101417.84
2022-08-11T06:54:16.053Z,101407.47
2022-08-11T06:57:29.927Z,101411.09
2022-08-11T07:00:13.635Z,101406.47
2022-08-11T07:02:53.094Z,101396.72
2022-08-11T07:05:29.648Z,101392.56
2022-08-11T07:09:17.756Z,101404.88
2022-08-11T07:12:58.954Z,101404.66
2022-08-11T07:16:11.673Z,101406.72
2022-08-11T07:18:55.015Z,101391.59
2022-08-11T07:22:03.182Z,101393.47
2022-08-11T07:25:02.470Z,101391.06
2022-08-11T07:28:01.736Z,101401.13
2022-08-11T07:30:32.904Z,101393.75
2022-08-11T07:33:04.758Z,101397.34
2022-08-11T07:35:39.628Z,101393.97
2022-08-11T07:38:22.089Z,101392.81
2022-08-11T07:40:52.883Z,101390.38
2022-08-11T07:43:22.125Z,101397.56
2022-08-11T07:46:08.297Z,101400.78
2022-08-11T07:48:55.343Z,101394.84
2022-08-11T07:51:43.043Z,101406.41
2022-08-11T07:54:17.137Z,101400.50
2022-08-11T07:56:54.721Z,101401.75
2022-08-11T08:00:04.086Z,101402.88
2022-08-11T08:02:59.733Z,101395.88
2022-08-11T08:05:47.880Z,101397.44
2022-08-11T08:08:35.585Z,101392.81
2022-08-11T08:11:27.680Z,101397.13
2022-08-11T08:14:14.850Z,101392.03
2022-08-11T08:17:02.305Z,101393.41
2022-08-11T08:19:33.768Z,101390.88
2022-08-11T08:22:06.138Z,101388.50
2022-08-11T08:24:56.374Z,101379.63
2022-08-11T08:27:27.630Z,101383.28
2022-08-11T08:30:18.671Z,101386.16
2022-08-11T08:32:47.643Z,101378.63
2022-08-11T08:35:17.217Z,101383.09
2022-08-11T08:37:47.699Z,101367.31
2022-08-11T08:40:19.131Z,101377.31
2022-08-11T08:42:55.103Z,101381.97
2022-08-11T08:45:27.443Z,101381.16
2022-08-11T08:48:01.887Z,101366.41
2022-08-11T08:50:55.041Z,101374.38
2022-08-11T08:53:31.031Z,101376.78
2022-08-11T08:56:04.036Z,101378.66
2022-08-11T08:58:35.772Z,101375.16
2022-08-11T09:01:05.672Z,101376.47
2022-08-11T09:04:04.650Z,101373.19
2022-08-11T09:06:31.494Z,101375.41
2022-08-11T09:09:01.031Z,101369.81
2022-08-11T09:11:48.775Z,101371.47
2022-08-11T09:14:18.998Z,101370.00
2022-08-11T09:16:50.183Z,101361.59
2022-08-11T09:19:21.935Z,101359.94
2022-08-11T09:22:08.889Z,101362.50
2022-08-11T09:24:57.533Z,101357.78
2022-08-11T09:27:29.125Z,101354.81
2022-08-11T09:29:58.277Z,101358.13
2022-08-11T09:32:29.369Z,101357.09
2022-08-11T09:34:58.974Z,101349.53
2022-08-11T09:37:54.172Z,101350.84
2022-08-11T09:40:32.473Z,101352.44
2022-08-11T09:43:24.471Z,101340.09
2022-08-11T09:45:55.668Z,101337.00
2022-08-11T09:48:28.349Z,101339.53
2022-08-11T09:51:01.644Z,101346.28
2022-08-11T09:53:40.506Z,101339.16
2022-08-11T09:56:33.437Z,101346.81
2022-08-11T09:59:05.912Z,101341.97
2022-08-11T10:01:42.318Z,101335.22
2022-08-11T10:04:16.497Z,101330.44
2022-08-11T10:07:04.418Z,101329.34
2022-08-11T10:09:41.953Z,101342.28
2022-08-11T10:12:15.568Z,101331.28
2022-08-11T10:15:06.960Z,101322.59
2022-08-11T10:18:03.926Z,101319.28
2022-08-11T10:20:37.555Z,101321.91
2022-08-11T10:23:24.331Z,101318.69
2022-08-11T10:26:11.027Z,101319.50
2022-08-11T10:29:09.698Z,101312.44
2022-08-11T10:31:57.942Z,101300.13
2022-08-11T10:34:29.609Z,101295.00
2022-08-11T10:37:03.181Z,101296.72
2022-08-11T10:39:33.061Z,101288.06
2022-08-11T10:42:30.230Z,101284.53
2022-08-11T10:45:29.108Z,101282.03
2022-08-11T10:47:59.807Z,101281.72
2022-08-11T10:50:47.093Z,101273.34
2022-08-11T10:53:34.481Z,101274.47
2022-08-11T10:56:23.993Z,101269.22
2022-08-11T10:58:54.363Z,101262.66
2022-08-11T11:01:27.127Z,101266.44
2022-08-11T11:04:03.029Z,101268.09
2022-08-11T11:06:44.861Z,101262.38
2022-08-11T11:09:20.461Z,101258.66
2022-08-11T11:12:11.657Z,101242.06
2022-08-11T11:15:02.204Z,101242.00
2022-08-11T11:17:56.425Z,101243.88
2022-08-11T11:20:38.633Z,101231.59
2022-08-11T11:23:17.801Z,101229.38
2022-08-11T11:26:14.913Z,101233.31
2022-08-11T11:29:24.880Z,101231.34
2022-08-11T11:32:19.525Z,101232.41
2022-08-11T11:35:34.040Z,101229.28
2022-08-11T11:38:13.787Z,101225.50
2022-08-11T11:40:43.875Z,101230.31
2022-08-11T11:43:13.209Z,101223.94
2022-08-11T11:45:44.575Z,101233.69
2022-08-11T11:48:13.766Z,101230.09
2022-08-11T11:50:44.171Z,101223.41
2022-08-11T11:53:14.747Z,101215.91
2022-08-11T11:55:45.017Z,101207.47
2022-08-11T11:58:32.634Z,101208.25
2022-08-11T12:01:24.210Z,101203.50
2022-08-11T12:03:56.642Z,101209.19
2022-08-11T12:06:45.741Z,101201.75
2022-08-11T12:09:23.282Z,101205.81
2022-08-11T12:12:16.256Z,101206.03
2022-08-11T12:14:45.364Z,101201.53
2022-08-11T12:17:14.359Z,101193.22
2022-08-11T12:19:48.318Z,101201.56
2022-08-11T12:22:47.712Z,101198.53
2022-08-11T12:25:36.688Z,101190.47
2022-08-11T12:28:06.241Z,101174.09
2022-08-11T12:30:35.002Z,101183.72
2022-08-11T12:33:04.049Z,101174.50
2022-08-11T12:35:35.254Z,101174.47
2022-08-11T12:38:10.671Z,101165.91
2022-08-11T12:41:18.032Z,101171.84
2022-08-11T12:44:06.642Z,101172.19
2022-08-11T12:46:38.722Z,101188.84
2022-08-11T12:49:32.398Z,101180.75
2022-08-11T12:52:15.550Z,101177.00
2022-08-11T12:54:59.782Z,101182.06
2022-08-11T12:57:52.755Z,101173.25
2022-08-11T13:00:42.061Z,101174.22
2022-08-11T13:03:30.947Z,101172.31
2022-08-11T13:06:04.152Z,101173.34
2022-08-11T13:12:31.377Z,101153.59
2022-08-11T13:15:04.358Z,101160.94
2022-08-11T13:17:43.628Z,101160.72
2022-08-11T13:20:15.149Z,101164.72
2022-08-11T13:22:46.017Z,101160.97
2022-08-11T13:25:17.626Z,101165.09
2022-08-11T13:28:07.318Z,101163.00
2022-08-11T13:30:55.763Z,101172.13
2022-08-11T13:33:26.187Z,101176.88
2022-08-11T13:35:56.719Z,101172.41
2022-08-11T13:38:27.632Z,101171.59
2022-08-11T13:40:58.031Z,101172.44
2022-08-11T13:43:28.646Z,101172.81
2022-08-11T13:46:13.459Z,101165.44
2022-08-11T13:48:43.310Z,101156.72
2022-08-11T13:51:34.659Z,101153.56
2022-08-11T13:54:09.124Z,101154.41
2022-08-11T13:56:40.905Z,101159.09
2022-08-11T13:59:11.560Z,101157.16
2022-08-11T14:02:22.793Z,101162.59
2022-08-11T14:04:52.905Z,101168.13
2022-08-11T14:07:25.600Z,101163.75
2022-08-11T14:10:00.012Z,101157.84
2022-08-11T14:12:50.718Z,101160.41
2022-08-11T14:15:25.223Z,101162.78
2022-08-11T14:18:01.775Z,101168.63
2022-08-11T14:20:54.873Z,101174.81
2022-08-11T14:23:28.976Z,101178.56
2022-08-11T14:26:16.343Z,101174.06
2022-08-11T14:28:46.014Z,101184.16
2022-08-11T14:31:17.650Z,101186.16
2022-08-11T14:34:00.199Z,101183.75
2022-08-11T14:36:35.526Z,101193.00
2022-08-11T14:39:11.756Z,101182.44
2022-08-11T14:42:10.009Z,101176.41
2022-08-11T14:45:04.078Z,101177.06
2022-08-11T14:47:37.068Z,101173.47
2022-08-11T14:50:14.934Z,101175.69
2022-08-11T14:52:50.910Z,101176.56
2022-08-11T14:55:40.941Z,101171.44
2022-08-11T14:58:14.148Z,101166.97
2022-08-11T15:00:44.762Z,101169.63
2022-08-11T15:03:15.409Z,101153.56
2022-08-11T15:05:56.030Z,101156.25
2022-08-11T15:08:47.037Z,101160.16
2022-08-11T15:11:36.704Z,101153.63
2022-08-11T15:14:09.433Z,101148.91
2022-08-11T15:17:00.003Z,101146.25
2022-08-11T15:19:37.528Z,101146.16
2022-08-11T15:22:29.624Z,101144.22
2022-08-11T15:25:00.061Z,101148.81
2022-08-11T15:27:51.817Z,101155.22
2022-08-11T15:30:37.413Z,101144.44
2022-08-11T15:33:26.757Z,101150.94
2022-08-11T15:36:16.516Z,101142.16
2022-08-11T15:38:56.354Z,101153.88
2022-08-11T15:41:58.619Z,101147.78
2022-08-11T15:45:02.801Z,101153.44
2022-08-11T15:47:41.808Z,101140.16
2022-08-11T15:50:21.948Z,101145.88
2022-08-11T15:52:57.190Z,101143.03
2022-08-11T15:55:30.132Z,101139.81
2022-08-11T15:58:22.437Z,101130.31
2022-08-11T16:01:12.021Z,101126.88
2022-08-11T16:04:09.049Z,101141.75
2022-08-11T16:06:49.300Z,101153.72
2022-08-11T16:09:29.114Z,101138.47
2022-08-11T16:12:13.877Z,101144.22
2022-08-11T16:15:04.846Z,101142.75
2022-08-11T16:17:44.413Z,101125.94
2022-08-11T16:20:18.459Z,101137.47
2022-08-11T16:22:55.168Z,101144.06
2022-08-11T16:27:04.810Z,101130.47
2022-08-11T16:28:27.755Z,101129.06
2022-08-11T16:30:58.780Z,101131.38
2022-08-11T16:33:51.113Z,101137.69
2022-08-11T16:36:38.735Z,101128.84
2022-08-11T16:39:09.371Z,101136.59
2022-08-11T16:41:58.961Z,101127.56
2022-08-11T16:44:49.323Z,101128.25
2022-08-11T16:47:53.820Z,101129.50
2022-08-11T16:50:12.399Z,101123.50
2022-08-11T16:52:42.224Z,101130.69
2022-08-11T16:55:11.506Z,101127.78
2022-08-11T16:58:18.604Z,101130.28
2022-08-11T17:00:52.292Z,101126.09
2022-08-11T17:03:40.648Z,101130.22
2022-08-11T17:06:29.869Z,101119.03
2022-08-11T17:09:22.113Z,101120.22
2022-08-11T17:12:14.738Z,101115.38
2022-08-11T17:14:50.932Z,101118.53
2022-08-11T17:17:29.746Z,101122.97
2022-08-11T17:20:39.529Z,101120.84
2022-08-11T17:23:16.369Z,101124.25
2022-08-11T17:26:03.929Z,101126.13
2022-08-11T17:28:36.050Z,101129.78
2022-08-11T17:31:24.450Z,101125.19
2022-08-11T17:34:15.671Z,101117.44
2022-08-11T17:36:46.030Z,101128.34
2022-08-11T17:39:16.965Z,101122.09
2022-08-11T17:42:04.599Z,101140.41
2022-08-11T17:44:54.139Z,101131.44
2022-08-11T17:47:44.316Z,101139.28
2022-08-11T17:50:17.817Z,101138.81
2022-08-11T17:53:06.358Z,101135.34
2022-08-11T17:55:57.659Z,101135.25
2022-08-11T17:58:45.961Z,101137.19
2022-08-11T18:01:17.016Z,101139.31
2022-08-11T18:03:53.249Z,101144.69
2022-08-11T18:06:34.238Z,101146.13
2022-08-11T18:09:27.545Z,101152.66
2022-08-11T18:12:16.260Z,101150.25
2022-08-11T18:15:08.264Z,101151.44
2022-08-11T18:17:56.002Z,101164.50
2022-08-11T18:20:42.867Z,101167.97
2022-08-11T18:23:42.084Z,101162.09
2022-08-11T18:26:39.214Z,101166.63
2022-08-11T18:29:28.508Z,101182.06
2022-08-11T18:32:20.916Z,101189.22
2022-08-11T18:35:12.571Z,101196.66
2022-08-11T18:38:07.505Z,101195.69
2022-08-11T18:40:56.760Z,101194.69
2022-08-11T18:43:47.006Z,101187.09
2022-08-11T18:46:37.109Z,101181.91
2022-08-11T18:50:01.734Z,101184.53
2022-08-11T18:52:42.319Z,101172.72
2022-08-11T18:55:35.216Z,101167.19
2022-08-11T18:58:28.866Z,101180.84
2022-08-11T19:01:18.697Z,101180.47
2022-08-11T19:04:11.854Z,101174.41
2022-08-11T19:07:08.663Z,101183.75
2022-08-11T19:09:59.081Z,101187.50
2022-08-11T19:12:50.927Z,101187.28
2022-08-11T19:15:41.108Z,101183.00
2022-08-11T19:18:35.298Z,101166.84
2022-08-11T19:21:23.087Z,101190.16
2022-08-11T19:24:15.357Z,101183.41
2022-08-11T19:27:03.285Z,101186.38
2022-08-11T19:30:04.906Z,101182.56
2022-08-11T19:33:02.260Z,101176.69
2022-08-11T19:35:52.481Z,101186.34
2022-08-11T19:38:40.879Z,101186.13
2022-08-11T19:41:57.009Z,101184.06
2022-08-11T19:44:39.021Z,101187.56
2022-08-11T19:47:27.686Z,101194.94
2022-08-11T19:50:21.905Z,101189.31
2022-08-11T19:53:17.306Z,101195.22
2022-08-11T19:56:06.109Z,101182.72
2022-08-11T19:58:54.479Z,101187.91
2022-08-11T20:02:01.641Z,101184.28
2022-08-11T20:04:47.827Z,101172.09
2022-08-11T20:07:39.347Z,101172.81
2022-08-11T20:10:29.532Z,101169.97
2022-08-11T20:13:21.536Z,101163.81
2022-08-11T20:16:11.903Z,101161.88
2022-08-11T20:18:59.958Z,101170.53
2022-08-11T20:21:47.793Z,101163.78
2022-08-11T20:24:38.381Z,101159.56
2022-08-11T20:27:28.388Z,101160.88
2022-08-11T20:30:18.789Z,101160.69
2022-08-11T20:33:06.706Z,101171.31
2022-08-11T20:35:54.991Z,101167.84
2022-08-11T20:38:44.289Z,101172.50
2022-08-11T20:41:33.487Z,101171.22
2022-08-11T20:44:41.941Z,101163.75
2022-08-11T20:47:30.442Z,101166.63
2022-08-11T20:50:20.342Z,101164.06
2022-08-11T20:53:08.690Z,101163.88
2022-08-11T20:55:55.830Z,101167.13
2022-08-11T21:01:54.007Z,101148.78
2022-08-11T21:04:54.752Z,101162.09
2022-08-11T21:07:55.505Z,101162.66
2022-08-11T21:10:51.123Z,101162.19
2022-08-11T21:13:43.714Z,101164.47
2022-08-11T21:16:37.375Z,101162.09
2022-08-11T21:20:00.246Z,101164.81
2022-08-11T21:22:58.957Z,101163.63
2022-08-11T21:25:59.301Z,101162.84
2022-08-11T21:28:48.774Z,101173.25
2022-08-11T21:31:36.878Z,101163.75
2022-08-11T21:34:26.583Z,101164.19
2022-08-11T21:37:13.241Z,101164.06
2022-08-11T21:40:01.590Z,101168.94
2022-08-11T21:42:51.507Z,101171.63
2022-08-11T21:45:40.276Z,101172.84
2022-08-11T21:48:30.437Z,101171.94
2022-08-11T21:51:16.940Z,101184.84
2022-08-11T21:54:03.973Z,101180.88
2022-08-11T21:56:52.746Z,101189.13
2022-08-11T21:59:59.847Z,101188.69
2022-08-11T22:02:53.252Z,101177.78
2022-08-11T22:05:41.291Z,101174.94
2022-08-11T22:08:28.805Z,101178.34
2022-08-11T22:11:16.856Z,101173.88
2022-08-11T22:14:19.339Z,101175.13
2022-08-11T22:17:05.572Z,101174.53
2022-08-11T22:19:55.640Z,101172.28
2022-08-11T22:22:52.374Z,101170.19
2022-08-11T22:25:46.568Z,101167.25
2022-08-11T22:28:38.887Z,101160.69
2022-08-11T22:31:28.978Z,101170.22
2022-08-11T22:34:15.233Z,101166.97
2022-08-11T22:37:06.826Z,101162.78
2022-08-11T22:40:02.266Z,101164.06
2022-08-11T22:42:50.404Z,101169.66
2022-08-11T22:45:37.217Z,101161.25
2022-08-11T22:48:26.275Z,101169.25
2022-08-11T22:51:14.311Z,101172.72
2022-08-11T22:54:04.071Z,101173.44
2022-08-11T22:56:52.439Z,101170.63
2022-08-11T22:59:40.606Z,101167.66
2022-08-11T23:02:27.657Z,101163.56
2022-08-11T23:05:16.756Z,101168.88
2022-08-11T23:08:04.508Z,101165.53
2022-08-11T23:10:53.050Z,101165.69
2022-08-11T23:13:40.854Z,101163.34
2022-08-11T23:16:27.900Z,101160.97
2022-08-11T23:20:06.328Z,101152.44
2022-08-11T23:22:23.175Z,101154.22
2022-08-11T23:25:24.289Z,101158.44
2022-08-11T23:28:14.050Z,101156.31
2022-08-11T23:31:02.725Z,101147.22
2022-08-11T23:33:51.814Z,101144.13
2022-08-11T23:36:47.257Z,101144.44
2022-08-11T23:39:35.073Z,101146.53
2022-08-11T23:42:21.953Z,101149.66
2022-08-11T23:45:11.769Z,101147.38
2022-08-11T23:48:00.169Z,101140.09
2022-08-11T23:50:47.724Z,101140.78
2022-08-11T23:53:36.359Z,101142.44
2022-08-11T23:56:23.181Z,101135.47
2022-08-11T23:59:11.028Z,101139.34
